Pos Dignity — VRAF2 — position and weather

sailwx.info

Track history (hours):
 
Tides and Currents Weather Stations Pressure Air Temp Water Temp Dewpoint Dewpoint Depression Visibility Wind Speed Wind Dir Waves Ship Positions

Pos Dignity

Last reported at 2014-Mar-27 10:12 UTC. Time now 2014-Sep-30 22:01 UTC.
Position N 35°16' E 119°40'.
Warning: this ship's position is months out of date.

Length 225 m; draft 12.2 m.

Type: Cargo ship. MMSI: 477480200.

Date/timePositionNaut miles runAvg speedWind from/ knotsBaromVisibWave heightAir tempDewpointWater temp
2014-Mar-27 10:12N 35°16' E 119°40'0 0.1
2014-Mar-27 09:30N 35°16' E 119°40'0 0.0
2014-Mar-27 08:24N 35°16' E 119°40'0 0.1
2014-Mar-27 07:30N 35°16' E 119°40'0 0.1
2014-Mar-27 06:30N 35°16' E 119°40'0 0.0
2014-Mar-27 05:30N 35°16' E 119°40'0 0.0
2014-Mar-27 04:17N 35°16' E 119°40'0 0.1
2014-Mar-27 03:29N 35°16' E 119°40'0 0.1
2014-Mar-27 02:29N 35°16' E 119°40'0 0.1
2014-Mar-27 01:29N 35°16' E 119°40'0 0.0
2014-Mar-27 00:29N 35°16' E 119°40'0 0.0
2014-Mar-26 23:29N 35°16' E 119°40'0 0.0
2014-Mar-26 20:29N 35°16' E 119°40'0 0.0
2014-Mar-26 19:29N 35°16' E 119°40'0 0.1
2014-Mar-26 17:29N 35°16' E 119°40'0 0.1
2014-Mar-26 16:29N 35°16' E 119°40'0 0.1
2014-Mar-26 15:30N 35°16' E 119°40'1 1.4
2014-Mar-26 14:33N 35°17' E 119°40'8 8.0
2014-Mar-26 13:33N 35°22' E 119°32'1 0.6
2014-Mar-26 12:30N 35°22' E 119°32'0 0.0
2014-Mar-26 11:30N 35°22' E 119°32'0 0.0
2014-Mar-26 10:24N 35°22' E 119°32'0 0.0
2014-Mar-26 09:30N 35°22' E 119°32'0 0.0
2014-Mar-26 08:12N 35°22' E 119°32'0 0.0
2014-Mar-26 07:24N 35°22' E 119°32'0 0.0
2014-Mar-26 00:29N 35°22' E 119°32'0 0.0
2014-Mar-25 23:29N 35°22' E 119°32'0 0.0
2014-Mar-25 22:17N 35°22' E 119°32'0 0.0
2014-Mar-25 21:29N 35°22' E 119°32'0 0.0
2014-Mar-25 20:11N 35°22' E 119°32'0 0.0
2014-Mar-25 19:23N 35°22' E 119°32'0 0.0
2014-Mar-25 17:29N 35°22' E 119°32'0 0.0
2014-Mar-25 16:29N 35°22' E 119°32'0 0.0
2014-Mar-25 15:29N 35°22' E 119°32'0 0.0
2014-Mar-25 13:05N 35°22' E 119°32'0 0.0
2014-Mar-25 12:29N 35°22' E 119°32'0 0.0
2014-Mar-25 10:29N 35°22' E 119°32'0 0.0
2014-Mar-25 09:23N 35°22' E 119°32'0 0.0
2014-Mar-25 08:29N 35°22' E 119°32'0 0.0
2014-Mar-25 03:29N 35°22' E 119°32'0 0.0
2014-Mar-25 02:29N 35°22' E 119°32'0 0.0
2014-Mar-24 16:58N 35°22' E 119°32'0 0.0
2014-Mar-22 20:27N 35°22' E 119°32'0 0.0
2014-Mar-22 20:21N 35°22' E 119°32'0 0.0
2014-Mar-22 17:27N 35°22' E 119°32'0 0.0
2014-Mar-22 14:21N 35°22' E 119°32'0 0.0
2014-Mar-22 13:33N 35°22' E 119°32'0 0.0
2014-Mar-22 12:33N 35°22' E 119°32'0 0.0
2014-Mar-22 11:33N 35°22' E 119°32'0 0.0
2014-Mar-22 10:33N 35°22' E 119°32'0 0.0
2014-Mar-22 09:33N 35°22' E 119°32'0 0.0
2014-Mar-22 08:27N 35°22' E 119°32'0 0.0
2014-Mar-22 07:33N 35°22' E 119°32'4 4.0
2014-Mar-22 06:33N 35°19' E 119°36'7 7.2
2014-Mar-22 05:33N 35°19' E 119°45'1 0.8
2014-Mar-22 04:28N 35°19' E 119°46'0 0.0
2014-Mar-22 03:28N 35°19' E 119°46'0 0.1
2014-Mar-22 02:22N 35°19' E 119°46'0 0.2
2014-Mar-22 01:28N 35°19' E 119°45'0 0.0
2014-Mar-22 00:28N 35°19' E 119°45'0 0.0
2014-Mar-21 23:28N 35°19' E 119°45'0 0.1
2014-Mar-21 22:28N 35°19' E 119°45'0 0.1
2014-Mar-21 21:22N 35°19' E 119°45'0 0.1
2014-Mar-21 20:28N 35°19' E 119°45'0 0.1
2014-Mar-21 19:28N 35°19' E 119°46'0 0.0
2014-Mar-21 18:16N 35°19' E 119°46'0 0.0
2014-Mar-21 17:28N 35°19' E 119°46'0 0.1
2014-Mar-21 16:28N 35°19' E 119°46'0 0.0
2014-Mar-21 15:28N 35°19' E 119°46'0 0.0
2014-Mar-21 14:28N 35°19' E 119°46'0 0.1
2014-Mar-21 13:28N 35°19' E 119°46'0 0.1
2014-Mar-21 12:28N 35°19' E 119°45'0 0.0
2014-Mar-21 11:28N 35°19' E 119°45'0 0.0
2014-Mar-21 10:28N 35°19' E 119°45'0 0.1
2014-Mar-21 09:28N 35°19' E 119°45'0 0.1
2014-Mar-21 08:16N 35°19' E 119°45'0 0.1
2014-Mar-21 07:28N 35°19' E 119°46'0 0.0
2014-Mar-21 06:28N 35°19' E 119°46'0 0.0
2014-Mar-21 05:22N 35°19' E 119°46'0 0.0
2014-Mar-21 04:28N 35°19' E 119°46'0 0.4
2014-Mar-21 03:33N 35°19' E 119°46'7 7.1
2014-Mar-21 02:33N 35°13' E 119°52'1110.5
2014-Mar-21 01:33N 35°09' E 120°04'2211.1
2014-Mar-20 23:33N 35°05' E 120°30'  
Track history (hours):
 
Tides and Currents Weather Stations Pressure Air Temp Water Temp Dewpoint Dewpoint Depression Visibility Wind Speed Wind Dir Waves Ship Positions

Pos Dignity

Last reported at 2014-Mar-27 10:12 UTC. Time now 2014-Sep-30 22:01 UTC.
Position N 35°16' E 119°40'.
Warning: this ship's position is months out of date.

Length 225 m; draft 12.2 m.

Type: Cargo ship. MMSI: 477480200.

Date/timePositionNaut miles runAvg speedWind from/ knotsBaromVisibWave heightAir tempDewpointWater temp
2014-Mar-27 10:12N 35°16' E 119°40'0 0.1
2014-Mar-27 09:30N 35°16' E 119°40'0 0.0
2014-Mar-27 08:24N 35°16' E 119°40'0 0.1
2014-Mar-27 07:30N 35°16' E 119°40'0 0.1
2014-Mar-27 06:30N 35°16' E 119°40'0 0.0
2014-Mar-27 05:30N 35°16' E 119°40'0 0.0
2014-Mar-27 04:17N 35°16' E 119°40'0 0.1
2014-Mar-27 03:29N 35°16' E 119°40'0 0.1
2014-Mar-27 02:29N 35°16' E 119°40'0 0.1
2014-Mar-27 01:29N 35°16' E 119°40'0 0.0
2014-Mar-27 00:29N 35°16' E 119°40'0 0.0
2014-Mar-26 23:29N 35°16' E 119°40'0 0.0
2014-Mar-26 20:29N 35°16' E 119°40'0 0.0
2014-Mar-26 19:29N 35°16' E 119°40'0 0.1
2014-Mar-26 17:29N 35°16' E 119°40'0 0.1
2014-Mar-26 16:29N 35°16' E 119°40'0 0.1
2014-Mar-26 15:30N 35°16' E 119°40'1 1.4
2014-Mar-26 14:33N 35°17' E 119°40'8 8.0
2014-Mar-26 13:33N 35°22' E 119°32'1 0.6
2014-Mar-26 12:30N 35°22' E 119°32'0 0.0
2014-Mar-26 11:30N 35°22' E 119°32'0 0.0
2014-Mar-26 10:24N 35°22' E 119°32'0 0.0
2014-Mar-26 09:30N 35°22' E 119°32'0 0.0
2014-Mar-26 08:12N 35°22' E 119°32'0 0.0
2014-Mar-26 07:24N 35°22' E 119°32'0 0.0
2014-Mar-26 00:29N 35°22' E 119°32'0 0.0
2014-Mar-25 23:29N 35°22' E 119°32'0 0.0
2014-Mar-25 22:17N 35°22' E 119°32'0 0.0
2014-Mar-25 21:29N 35°22' E 119°32'0 0.0
2014-Mar-25 20:11N 35°22' E 119°32'0 0.0
2014-Mar-25 19:23N 35°22' E 119°32'0 0.0
2014-Mar-25 17:29N 35°22' E 119°32'0 0.0
2014-Mar-25 16:29N 35°22' E 119°32'0 0.0
2014-Mar-25 15:29N 35°22' E 119°32'0 0.0
2014-Mar-25 13:05N 35°22' E 119°32'0 0.0
2014-Mar-25 12:29N 35°22' E 119°32'0 0.0
2014-Mar-25 10:29N 35°22' E 119°32'0 0.0
2014-Mar-25 09:23N 35°22' E 119°32'0 0.0
2014-Mar-25 08:29N 35°22' E 119°32'0 0.0
2014-Mar-25 03:29N 35°22' E 119°32'0 0.0
2014-Mar-25 02:29N 35°22' E 119°32'0 0.0
2014-Mar-24 16:58N 35°22' E 119°32'0 0.0
2014-Mar-22 20:27N 35°22' E 119°32'0 0.0
2014-Mar-22 20:21N 35°22' E 119°32'0 0.0
2014-Mar-22 17:27N 35°22' E 119°32'0 0.0
2014-Mar-22 14:21N 35°22' E 119°32'0 0.0
2014-Mar-22 13:33N 35°22' E 119°32'0 0.0
2014-Mar-22 12:33N 35°22' E 119°32'0 0.0
2014-Mar-22 11:33N 35°22' E 119°32'0 0.0
2014-Mar-22 10:33N 35°22' E 119°32'0 0.0
2014-Mar-22 09:33N 35°22' E 119°32'0 0.0
2014-Mar-22 08:27N 35°22' E 119°32'0 0.0
2014-Mar-22 07:33N 35°22' E 119°32'4 4.0
2014-Mar-22 06:33N 35°19' E 119°36'7 7.2
2014-Mar-22 05:33N 35°19' E 119°45'1 0.8
2014-Mar-22 04:28N 35°19' E 119°46'0 0.0
2014-Mar-22 03:28N 35°19' E 119°46'0 0.1
2014-Mar-22 02:22N 35°19' E 119°46'0 0.2
2014-Mar-22 01:28N 35°19' E 119°45'0 0.0
2014-Mar-22 00:28N 35°19' E 119°45'0 0.0
2014-Mar-21 23:28N 35°19' E 119°45'0 0.1
2014-Mar-21 22:28N 35°19' E 119°45'0 0.1
2014-Mar-21 21:22N 35°19' E 119°45'0 0.1
2014-Mar-21 20:28N 35°19' E 119°45'0 0.1
2014-Mar-21 19:28N 35°19' E 119°46'0 0.0
2014-Mar-21 18:16N 35°19' E 119°46'0 0.0
2014-Mar-21 17:28N 35°19' E 119°46'0 0.1
2014-Mar-21 16:28N 35°19' E 119°46'0 0.0
2014-Mar-21 15:28N 35°19' E 119°46'0 0.0
2014-Mar-21 14:28N 35°19' E 119°46'0 0.1
2014-Mar-21 13:28N 35°19' E 119°46'0 0.1
2014-Mar-21 12:28N 35°19' E 119°45'0 0.0
2014-Mar-21 11:28N 35°19' E 119°45'0 0.0
2014-Mar-21 10:28N 35°19' E 119°45'0 0.1
2014-Mar-21 09:28N 35°19' E 119°45'0 0.1
2014-Mar-21 08:16N 35°19' E 119°45'0 0.1
2014-Mar-21 07:28N 35°19' E 119°46'0 0.0
2014-Mar-21 06:28N 35°19' E 119°46'0 0.0
2014-Mar-21 05:22N 35°19' E 119°46'0 0.0
2014-Mar-21 04:28N 35°19' E 119°46'0 0.4
2014-Mar-21 03:33N 35°19' E 119°46'7 7.1
2014-Mar-21 02:33N 35°13' E 119°52'1110.5
2014-Mar-21 01:33N 35°09' E 120°04'2211.1
2014-Mar-20 23:33N 35°05' E 120°30'  

Dump ship's entire track history